createdAt,value
2018-12-09T00:01:46.401Z,9.77
2018-12-09T00:04:12.673Z,10.27
2018-12-09T00:06:38.941Z,14.30
2018-12-09T00:09:05.434Z,11.80
2018-12-09T00:11:31.747Z,12.07
2018-12-09T00:13:57.993Z,19.57
2018-12-09T00:16:24.271Z,18.57
2018-12-09T00:18:50.549Z,12.70
2018-12-09T00:21:16.817Z,12.07
2018-12-09T00:23:43.109Z,12.07
2018-12-09T00:26:09.382Z,17.20
2018-12-09T00:28:35.633Z,14.40
2018-12-09T00:31:01.954Z,13.43
2018-12-09T00:33:28.515Z,18.40
2018-12-09T00:35:54.811Z,16.63
2018-12-09T00:38:21.073Z,17.47
2018-12-09T00:40:47.452Z,16.63
2018-12-09T00:43:13.713Z,18.23
2018-12-09T00:45:39.975Z,16.57
2018-12-09T00:48:06.266Z,15.90
2018-12-09T00:50:32.505Z,19.17
2018-12-09T00:52:58.769Z,15.93
2018-12-09T00:55:25.125Z,14.37
2018-12-09T00:57:51.495Z,16.07
2018-12-09T01:00:17.765Z,16.83
2018-12-09T01:02:44.270Z,16.00
2018-12-09T01:05:10.645Z,13.43
2018-12-09T01:07:36.926Z,12.63
2018-12-09T01:10:04.908Z,13.67
2018-12-09T01:12:31.298Z,14.37
2018-12-09T01:14:57.541Z,16.07
2018-12-09T01:17:23.793Z,15.97
2018-12-09T01:19:50.106Z,17.50
2018-12-09T01:22:16.397Z,10.30
2018-12-09T01:24:42.661Z,16.40
2018-12-09T01:27:08.923Z,19.53
2018-12-09T01:29:35.297Z,20.43
2018-12-09T01:32:01.869Z,19.20
2018-12-09T01:34:28.245Z,12.80
2018-12-09T01:36:54.500Z,14.37
2018-12-09T01:39:20.769Z,16.47
2018-12-09T01:41:47.029Z,13.47
2018-12-09T01:44:13.718Z,17.23
2018-12-09T01:46:40.181Z,13.47
2018-12-09T01:49:06.452Z,12.60
2018-12-09T01:51:32.741Z,15.83
2018-12-09T01:54:08.253Z,14.40
2018-12-09T01:56:34.526Z,14.17
2018-12-09T01:59:00.905Z,17.67
2018-12-09T02:01:27.174Z,18.20
2018-12-09T02:03:53.430Z,15.23
2018-12-09T02:06:19.699Z,13.10
2018-12-09T02:08:46.505Z,10.87
2018-12-09T02:11:12.920Z,16.00
2018-12-09T02:13:39.085Z,14.30
2018-12-09T02:16:05.368Z,21.33
2018-12-09T02:18:31.729Z,13.57
2018-12-09T02:20:58.313Z,16.80
2018-12-09T02:23:24.579Z,18.23
2018-12-09T02:25:50.829Z,13.83
2018-12-09T02:28:17.090Z,20.50
2018-12-09T02:30:43.371Z,14.20
2018-12-09T02:33:10.135Z,18.57
2018-12-09T02:35:41.268Z,14.83
2018-12-09T02:38:07.557Z,16.67
2018-12-09T02:40:33.717Z,16.80
2018-12-09T02:43:00.099Z,18.83
2018-12-09T02:45:26.657Z,15.33
2018-12-09T02:47:52.919Z,20.07
2018-12-09T02:50:19.173Z,22.67
2018-12-09T02:52:45.550Z,21.07
2018-12-09T02:55:11.803Z,19.23
2018-12-09T02:57:38.090Z,16.47
2018-12-09T03:00:04.714Z,16.73
2018-12-09T03:02:30.976Z,16.70
2018-12-09T03:04:57.354Z,15.13
2018-12-09T03:07:23.597Z,18.20
2018-12-09T03:09:49.871Z,15.17
2018-12-09T03:12:16.117Z,14.60
2018-12-09T03:14:42.385Z,13.50
2018-12-09T03:17:08.633Z,22.00
2018-12-09T03:19:34.902Z,16.97
2018-12-09T03:22:01.153Z,20.60
2018-12-09T03:24:27.865Z,20.03
2018-12-09T03:26:55.167Z,13.03
2018-12-09T03:29:22.111Z,17.40
2018-12-09T03:31:48.873Z,17.77
2018-12-09T03:34:15.654Z,16.37
2018-12-09T03:36:42.360Z,15.17
2018-12-09T03:39:09.056Z,16.07
2018-12-09T03:41:36.079Z,14.30
2018-12-09T03:44:02.864Z,13.23
2018-12-09T03:46:29.580Z,13.63
2018-12-09T03:48:56.245Z,13.07
2018-12-09T03:51:22.937Z,15.63
2018-12-09T03:53:49.605Z,18.67
2018-12-09T03:56:16.301Z,11.87
2018-12-09T03:58:42.984Z,15.60
2018-12-09T04:01:09.701Z,13.63
2018-12-09T04:03:36.781Z,10.27
2018-12-09T04:06:03.476Z,8.73
2018-12-09T04:08:30.158Z,13.50
2018-12-09T04:10:56.831Z,13.27
2018-12-09T04:13:23.627Z,12.43
2018-12-09T04:15:50.302Z,15.20
2018-12-09T04:18:17.111Z,10.50
2018-12-09T04:20:43.793Z,10.43
2018-12-09T04:23:10.496Z,14.83
2018-12-09T04:25:37.169Z,15.77
2018-12-09T04:28:03.976Z,11.33
2018-12-09T04:30:30.652Z,13.13
2018-12-09T04:32:57.465Z,14.50
2018-12-09T04:35:24.137Z,16.13
2018-12-09T04:37:50.800Z,13.70
2018-12-09T04:40:17.480Z,9.80
2018-12-09T04:42:44.570Z,11.57
2018-12-09T04:45:11.281Z,13.47
2018-12-09T04:47:37.957Z,16.80
2018-12-09T04:50:05.176Z,9.63
2018-12-09T04:52:31.861Z,10.60
2018-12-09T04:54:58.869Z,12.87
2018-12-09T04:57:25.545Z,16.93
2018-12-09T04:59:54.269Z,12.53
2018-12-09T05:02:20.947Z,10.73
2018-12-09T05:04:47.751Z,14.73
2018-12-09T05:07:14.533Z,14.03
2018-12-09T05:09:41.229Z,14.70
2018-12-09T05:12:07.901Z,17.77
2018-12-09T05:14:34.572Z,17.23
2018-12-09T05:17:01.369Z,15.27
2018-12-09T05:19:27.964Z,16.63
2018-12-09T05:21:55.053Z,9.80
2018-12-09T05:24:21.858Z,15.23
2018-12-09T05:26:48.669Z,15.73
2018-12-09T05:29:15.336Z,15.03
2018-12-09T05:31:41.597Z,15.37
2018-12-09T05:34:07.845Z,17.43
2018-12-09T05:36:34.108Z,19.60
2018-12-09T05:39:00.345Z,19.07
2018-12-09T05:41:26.501Z,15.67
2018-12-09T05:43:52.741Z,13.70
2018-12-09T05:46:19.053Z,16.93
2018-12-09T05:48:45.609Z,16.20
2018-12-09T05:51:11.858Z,14.33
2018-12-09T05:53:38.121Z,17.80
2018-12-09T05:56:04.384Z,16.03
2018-12-09T05:58:30.678Z,15.00
2018-12-09T06:01:03.934Z,17.20
2018-12-09T06:03:30.201Z,13.50
2018-12-09T06:05:56.465Z,13.87
2018-12-09T06:08:22.725Z,15.57
2018-12-09T06:10:49.001Z,68.57
2018-12-09T06:13:15.469Z,13.43
2018-12-09T06:15:41.951Z,15.30
2018-12-09T06:18:08.146Z,13.33
2018-12-09T06:20:34.401Z,12.43
2018-12-09T06:23:00.677Z,10.70
2018-12-09T06:25:27.104Z,13.60
2018-12-09T06:27:53.354Z,10.67
2018-12-09T06:30:19.638Z,13.03
2018-12-09T06:32:45.884Z,12.73
2018-12-09T06:35:12.150Z,11.80
2018-12-09T06:37:38.404Z,8.67
2018-12-09T06:40:04.926Z,10.83
2018-12-09T06:42:31.696Z,14.37
2018-12-09T06:44:57.960Z,13.67
2018-12-09T06:47:24.209Z,20.77
2018-12-09T06:49:50.508Z,15.50
2018-12-09T06:52:16.774Z,12.37
2018-12-09T06:54:43.173Z,18.13
2018-12-09T06:57:09.757Z,13.80
2018-12-09T06:59:36.018Z,14.27
2018-12-09T07:02:02.433Z,11.80
2018-12-09T07:04:28.693Z,14.57
2018-12-09T07:06:54.970Z,8.97
2018-12-09T07:09:21.225Z,10.23
2018-12-09T07:11:48.007Z,14.53
2018-12-09T07:14:14.262Z,12.83
2018-12-09T07:16:40.642Z,12.53
2018-12-09T07:19:06.897Z,14.90
2018-12-09T07:21:33.163Z,6.57
2018-12-09T07:23:59.425Z,11.73
2018-12-09T07:26:26.118Z,11.80
2018-12-09T07:28:52.370Z,12.90
2018-12-09T07:31:18.630Z,11.57
2018-12-09T07:33:44.884Z,8.70
2018-12-09T07:36:11.158Z,14.07
2018-12-09T07:38:37.425Z,11.43
2018-12-09T07:41:04.009Z,13.33
2018-12-09T07:43:30.282Z,13.73
2018-12-09T07:45:56.532Z,14.80
2018-12-09T07:48:22.789Z,10.37
2018-12-09T07:50:49.049Z,9.30
2018-12-09T07:53:15.322Z,13.97
2018-12-09T07:55:41.558Z,10.63
2018-12-09T07:58:07.855Z,9.07
2018-12-09T08:00:34.097Z,13.00
2018-12-09T08:03:00.357Z,13.07
2018-12-09T08:05:26.598Z,14.10
2018-12-09T08:07:52.858Z,14.03
2018-12-09T08:10:19.294Z,14.67
2018-12-09T08:12:45.533Z,8.83
2018-12-09T08:15:11.821Z,13.93
2018-12-09T08:17:38.066Z,13.67
2018-12-09T08:20:04.458Z,12.03
2018-12-09T08:22:30.701Z,14.80
2018-12-09T08:24:56.953Z,12.63
2018-12-09T08:27:23.216Z,13.77
2018-12-09T08:29:49.595Z,12.07
2018-12-09T08:32:15.837Z,8.60
2018-12-09T08:34:42.108Z,15.50
2018-12-09T08:37:08.357Z,19.13
2018-12-09T08:39:34.699Z,14.70
2018-12-09T08:42:01.054Z,9.63
2018-12-09T08:44:27.350Z,13.87
2018-12-09T08:46:53.606Z,10.57
2018-12-09T08:49:19.869Z,11.83
2018-12-09T08:51:46.221Z,14.07
2018-12-09T08:54:12.542Z,13.50
2018-12-09T08:56:38.881Z,14.93
2018-12-09T08:59:05.789Z,11.50
2018-12-09T09:01:32.245Z,14.60
2018-12-09T09:03:58.565Z,12.93
2018-12-09T09:06:24.828Z,14.37
2018-12-09T09:08:51.118Z,10.77
2018-12-09T09:11:17.377Z,13.10
2018-12-09T09:13:50.717Z,13.17
2018-12-09T09:16:17.000Z,16.70
2018-12-09T09:18:43.254Z,14.13
2018-12-09T09:21:09.518Z,12.53
2018-12-09T09:23:35.836Z,12.83
2018-12-09T09:26:02.114Z,15.23
2018-12-09T09:28:28.369Z,11.90
2018-12-09T09:30:54.617Z,11.17
2018-12-09T09:33:20.885Z,10.80
2018-12-09T09:35:47.387Z,13.07
2018-12-09T09:38:13.681Z,12.20
2018-12-09T09:40:40.001Z,10.57
2018-12-09T09:43:06.319Z,6.93
2018-12-09T09:45:32.793Z,9.53
2018-12-09T09:47:59.061Z,20.73
2018-12-09T09:50:25.378Z,10.47
2018-12-09T09:52:51.646Z,8.27
2018-12-09T09:55:17.899Z,13.73
2018-12-09T09:57:44.297Z,13.00
2018-12-09T10:00:10.553Z,9.50
2018-12-09T10:02:36.847Z,14.73
2018-12-09T10:05:03.499Z,14.33
2018-12-09T10:07:29.758Z,10.97
2018-12-09T10:09:56.034Z,10.80
2018-12-09T10:12:22.293Z,10.33
2018-12-09T10:14:48.558Z,11.60
2018-12-09T10:17:14.802Z,10.80
2018-12-09T10:19:41.075Z,8.03
2018-12-09T10:22:07.370Z,8.70
2018-12-09T10:24:33.638Z,9.40
2018-12-09T10:26:59.913Z,8.40
2018-12-09T10:29:26.197Z,5.60
2018-12-09T10:31:52.489Z,7.07
2018-12-09T10:34:18.766Z,5.80
2018-12-09T10:36:45.000Z,3.43
2018-12-09T10:39:11.266Z,7.77
2018-12-09T10:41:37.530Z,4.77
2018-12-09T10:44:03.802Z,5.43
2018-12-09T10:46:30.098Z,3.13
2018-12-09T10:48:56.353Z,4.33
2018-12-09T10:51:22.610Z,4.57
2018-12-09T10:53:48.869Z,4.43
2018-12-09T10:56:15.121Z,4.03
2018-12-09T10:58:41.387Z,2.97
2018-12-09T11:01:09.778Z,2.60
2018-12-09T11:03:36.033Z,2.87
2018-12-09T11:06:02.301Z,2.83
2018-12-09T11:08:28.549Z,2.33
2018-12-09T11:10:54.942Z,4.40
2018-12-09T11:13:21.314Z,2.97
2018-12-09T11:15:47.581Z,1.60
2018-12-09T11:18:13.838Z,2.73
2018-12-09T11:20:40.233Z,2.10
2018-12-09T11:23:06.487Z,1.77
2018-12-09T11:25:32.857Z,2.90
2018-12-09T11:27:59.117Z,3.37
2018-12-09T11:30:25.515Z,3.33
2018-12-09T11:32:51.782Z,4.60
2018-12-09T11:35:18.161Z,4.87
2018-12-09T11:37:44.441Z,2.77
2018-12-09T11:40:10.874Z,1.63
2018-12-09T11:42:37.200Z,1.53
2018-12-09T11:45:04.697Z,2.20
2018-12-09T11:47:31.340Z,3.23
2018-12-09T11:49:57.606Z,1.23
2018-12-09T11:52:23.862Z,1.50
2018-12-09T11:54:50.271Z,3.50
2018-12-09T11:57:16.593Z,2.63
2018-12-09T11:59:44.973Z,2.40
2018-12-09T12:02:11.234Z,3.00
2018-12-09T12:04:39.524Z,2.17
2018-12-09T12:07:05.792Z,2.67
2018-12-09T12:09:32.061Z,3.63
2018-12-09T12:11:58.317Z,1.87
2018-12-09T12:14:24.581Z,2.20
2018-12-09T12:16:50.829Z,1.80
2018-12-09T12:19:17.097Z,7.17
2018-12-09T12:21:43.515Z,1.63
2018-12-09T12:24:09.690Z,2.67
2018-12-09T12:26:42.910Z,1.40
2018-12-09T12:29:09.202Z,1.90
2018-12-09T12:31:35.391Z,2.03
2018-12-09T12:34:01.742Z,1.37
2018-12-09T12:36:28.086Z,2.50
2018-12-09T12:38:54.482Z,2.97
2018-12-09T12:41:20.805Z,3.10
2018-12-09T12:43:47.365Z,2.93
2018-12-09T12:46:13.726Z,2.33
2018-12-09T12:48:40.123Z,4.53
2018-12-09T12:51:07.711Z,4.27
2018-12-09T12:53:34.231Z,3.47
2018-12-09T12:56:00.568Z,4.57
2018-12-09T12:58:26.852Z,3.90
2018-12-09T13:00:53.282Z,2.57
2018-12-09T13:03:19.493Z,3.47
2018-12-09T13:05:45.679Z,5.17
2018-12-09T13:08:12.422Z,4.37
2018-12-09T13:10:38.625Z,3.83
2018-12-09T13:13:04.833Z,3.30
2018-12-09T13:15:31.882Z,3.60
2018-12-09T13:17:58.224Z,2.23
2018-12-09T13:20:24.402Z,4.83
2018-12-09T13:22:50.646Z,4.50
2018-12-09T13:25:16.904Z,4.83
2018-12-09T13:27:57.108Z,4.50
2018-12-09T13:30:23.353Z,4.40
2018-12-09T13:32:49.617Z,11.80
2018-12-09T13:35:16.758Z,6.20
2018-12-09T13:37:43.033Z,4.67
2018-12-09T13:40:09.434Z,3.10
2018-12-09T13:42:35.685Z,1.57
2018-12-09T13:45:02.292Z,0.90
2018-12-09T13:47:28.541Z,2.30
2018-12-09T13:49:54.797Z,3.07
2018-12-09T13:52:21.045Z,2.33
2018-12-09T13:54:47.315Z,1.27
2018-12-09T13:57:13.589Z,1.13
2018-12-09T13:59:39.968Z,4.57
2018-12-09T14:02:06.350Z,2.93
2018-12-09T14:04:32.610Z,1.57
2018-12-09T14:06:58.865Z,1.27
2018-12-09T14:09:25.137Z,3.03
2018-12-09T14:11:51.405Z,3.37
2018-12-09T14:14:17.711Z,3.10
2018-12-09T14:16:43.979Z,2.30
2018-12-09T14:19:10.226Z,1.73
2018-12-09T14:21:36.622Z,2.60
2018-12-09T14:24:03.138Z,1.70
2018-12-09T14:26:29.450Z,4.63
2018-12-09T14:28:56.950Z,11.00
2018-12-09T14:31:23.473Z,6.63
2018-12-09T14:33:49.717Z,8.10
2018-12-09T14:36:15.984Z,4.23
2018-12-09T14:38:42.349Z,3.57
2018-12-09T14:41:08.598Z,4.53
2018-12-09T14:43:34.898Z,7.13
2018-12-09T14:46:01.318Z,6.00
2018-12-09T14:48:27.589Z,4.23
2018-12-09T14:50:53.830Z,8.53
2018-12-09T14:53:20.110Z,6.77
2018-12-09T14:55:46.356Z,7.00
2018-12-09T14:58:12.630Z,7.83
2018-12-09T15:00:38.998Z,9.33
2018-12-09T15:03:05.298Z,9.13
2018-12-09T15:05:31.505Z,8.23
2018-12-09T15:07:57.773Z,9.33
2018-12-09T15:10:24.336Z,5.40
2018-12-09T15:12:50.746Z,8.60
2018-12-09T15:15:17.027Z,7.83
2018-12-09T15:17:43.541Z,8.30
2018-12-09T15:20:09.778Z,6.90
2018-12-09T15:22:36.042Z,5.60
2018-12-09T15:25:03.054Z,4.40
2018-12-09T15:27:29.335Z,6.07
2018-12-09T15:29:55.623Z,5.20
2018-12-09T15:32:21.883Z,4.83
2018-12-09T15:34:48.153Z,9.20
2018-12-09T15:37:14.404Z,8.03
2018-12-09T15:39:40.741Z,8.87
2018-12-09T15:42:07.001Z,8.37
2018-12-09T15:44:33.310Z,7.43
2018-12-09T15:46:59.636Z,6.93
2018-12-09T15:49:25.931Z,7.03
2018-12-09T15:51:52.206Z,9.57
2018-12-09T15:54:18.879Z,8.03
2018-12-09T15:56:45.249Z,7.83
2018-12-09T15:59:11.443Z,8.20
2018-12-09T16:01:37.743Z,5.90
2018-12-09T16:04:04.011Z,8.53
2018-12-09T16:06:30.287Z,9.33
2018-12-09T16:08:56.563Z,6.80
2018-12-09T16:11:22.870Z,6.23
2018-12-09T16:13:49.042Z,4.93
2018-12-09T16:16:15.317Z,5.23
2018-12-09T16:18:41.621Z,8.37
2018-12-09T16:21:07.934Z,7.43
2018-12-09T16:23:34.182Z,5.37
2018-12-09T16:26:00.450Z,10.20
2018-12-09T16:28:26.698Z,8.40
2018-12-09T16:30:52.965Z,8.10
2018-12-09T16:33:19.215Z,7.57
2018-12-09T16:35:47.507Z,8.43
2018-12-09T16:38:13.770Z,5.37
2018-12-09T16:40:40.186Z,9.80
2018-12-09T16:43:06.463Z,6.80
2018-12-09T16:45:32.829Z,10.53
2018-12-09T16:47:59.090Z,17.17
2018-12-09T16:50:25.339Z,11.53
2018-12-09T16:52:51.614Z,8.20
2018-12-09T16:55:17.866Z,8.80
2018-12-09T16:57:44.145Z,9.00
2018-12-09T17:00:10.434Z,11.90
2018-12-09T17:02:36.765Z,12.13
2018-12-09T17:05:04.145Z,10.73
2018-12-09T17:07:30.459Z,9.40
2018-12-09T17:09:56.762Z,11.73
2018-12-09T17:12:23.097Z,6.77
2018-12-09T17:14:49.448Z,9.53
2018-12-09T17:17:15.706Z,5.40
2018-12-09T17:19:42.189Z,7.37
2018-12-09T17:22:08.429Z,9.20
2018-12-09T17:24:34.766Z,10.30
2018-12-09T17:27:00.977Z,11.60
2018-12-09T17:29:27.454Z,4.00
2018-12-09T17:31:53.706Z,12.30
2018-12-09T17:34:19.969Z,8.00
2018-12-09T17:36:46.227Z,8.00
2018-12-09T17:39:12.501Z,11.47
2018-12-09T17:41:38.753Z,12.47
2018-12-09T17:44:05.030Z,14.53
2018-12-09T17:46:31.309Z,13.00
2018-12-09T17:48:57.578Z,13.43
2018-12-09T17:51:23.869Z,11.83
2018-12-09T17:53:50.142Z,10.93
2018-12-09T17:56:16.404Z,9.57
2018-12-09T17:58:42.687Z,12.80
2018-12-09T18:01:11.042Z,8.37
2018-12-09T18:03:37.280Z,14.10
2018-12-09T18:06:03.545Z,8.30
2018-12-09T18:08:36.818Z,8.30
2018-12-09T18:11:03.037Z,12.87
2018-12-09T18:13:36.279Z,11.00
2018-12-09T18:16:03.197Z,10.30
2018-12-09T18:18:29.486Z,11.27
2018-12-09T18:20:55.817Z,13.20
2018-12-09T18:23:22.256Z,8.67
2018-12-09T18:25:48.713Z,11.43
2018-12-09T18:28:15.098Z,11.13
2018-12-09T18:30:41.581Z,11.20
2018-12-09T18:33:07.865Z,12.87
2018-12-09T18:35:34.146Z,13.43
2018-12-09T18:38:00.917Z,11.13
2018-12-09T18:40:27.313Z,14.50
2018-12-09T18:42:53.593Z,11.70
2018-12-09T18:45:19.781Z,18.53
2018-12-09T18:47:46.077Z,15.37
2018-12-09T18:50:12.419Z,20.50
2018-12-09T18:52:38.705Z,12.37
2018-12-09T18:55:05.137Z,10.03
2018-12-09T18:57:31.545Z,7.83
2018-12-09T18:59:57.809Z,10.97
2018-12-09T19:02:24.082Z,3.47
2018-12-09T19:04:52.374Z,3.60
2018-12-09T19:07:19.305Z,5.73
2018-12-09T19:09:45.784Z,3.97
2018-12-09T19:12:12.249Z,4.33
2018-12-09T19:14:38.409Z,8.97
2018-12-09T19:17:04.693Z,10.00
2018-12-09T19:19:30.957Z,10.50
2018-12-09T19:21:57.205Z,11.43
2018-12-09T19:24:23.514Z,11.80
2018-12-09T19:26:49.854Z,9.57
2018-12-09T19:29:16.129Z,8.97
2018-12-09T19:31:42.382Z,10.70
2018-12-09T19:34:08.649Z,11.87
2018-12-09T19:36:34.897Z,15.77
2018-12-09T19:39:01.153Z,13.90
2018-12-09T19:41:27.402Z,10.33
2018-12-09T19:43:53.734Z,10.90
2018-12-09T19:46:20.004Z,11.37
2018-12-09T19:48:46.297Z,11.67
2018-12-09T19:51:12.573Z,11.73
2018-12-09T19:53:38.753Z,12.80
2018-12-09T19:56:12.103Z,13.73
2018-12-09T19:58:38.470Z,9.50
2018-12-09T20:01:04.997Z,10.17
2018-12-09T20:03:31.270Z,10.03
2018-12-09T20:05:57.432Z,10.17
2018-12-09T20:08:23.722Z,14.33
2018-12-09T20:10:49.925Z,8.87
2018-12-09T20:13:16.166Z,10.43
2018-12-09T20:15:42.441Z,7.37
2018-12-09T20:18:08.757Z,11.60
2018-12-09T20:20:35.034Z,6.77
2018-12-09T20:23:01.294Z,7.77
2018-12-09T20:25:27.565Z,6.63
2018-12-09T20:27:54.929Z,7.30
2018-12-09T20:30:21.185Z,8.20
2018-12-09T20:32:47.453Z,10.43
2018-12-09T20:35:13.600Z,8.87
2018-12-09T20:37:39.865Z,10.00
2018-12-09T20:40:06.251Z,11.50
2018-12-09T20:42:32.513Z,11.70
2018-12-09T20:44:58.770Z,6.93
2018-12-09T20:47:25.050Z,7.17
2018-12-09T20:49:52.574Z,9.13
2018-12-09T20:52:19.094Z,12.50
2018-12-09T20:54:45.360Z,11.07
2018-12-09T20:57:11.728Z,9.17
2018-12-09T20:59:37.993Z,11.80
2018-12-09T21:02:04.267Z,7.87
2018-12-09T21:04:30.538Z,8.13
2018-12-09T21:06:56.790Z,12.07
2018-12-09T21:09:23.057Z,8.40
2018-12-09T21:11:49.526Z,9.50
2018-12-09T21:14:15.855Z,7.93
2018-12-09T21:16:42.128Z,13.43
2018-12-09T21:19:08.391Z,9.00
2018-12-09T21:21:34.645Z,6.60
2018-12-09T21:24:00.932Z,6.30
2018-12-09T21:26:27.182Z,8.20
2018-12-09T21:28:53.421Z,7.17
2018-12-09T21:31:19.681Z,10.17
2018-12-09T21:33:45.968Z,7.07
2018-12-09T21:36:12.245Z,6.90
2018-12-09T21:38:38.498Z,6.80
2018-12-09T21:41:04.836Z,8.10
2018-12-09T21:43:31.124Z,8.07
2018-12-09T21:45:57.394Z,8.00
2018-12-09T21:48:23.666Z,6.57
2018-12-09T21:50:49.942Z,8.27
2018-12-09T21:53:16.185Z,7.77
2018-12-09T21:55:42.459Z,8.60
2018-12-09T21:58:08.706Z,7.57
2018-12-09T22:00:34.969Z,8.50
2018-12-09T22:03:01.350Z,7.33
2018-12-09T22:05:27.616Z,9.13
2018-12-09T22:07:54.085Z,10.77
2018-12-09T22:10:20.377Z,8.87
2018-12-09T22:12:46.762Z,6.13
2018-12-09T22:15:13.001Z,11.60
2018-12-09T22:17:39.307Z,11.27
2018-12-09T22:20:12.337Z,9.17
2018-12-09T22:22:38.603Z,5.80
2018-12-09T22:25:05.000Z,9.03
2018-12-09T22:27:31.257Z,5.37
2018-12-09T22:29:57.493Z,6.47
2018-12-09T22:32:23.762Z,9.10
2018-12-09T22:34:50.007Z,4.70
2018-12-09T22:37:16.266Z,11.80
2018-12-09T22:39:42.523Z,7.37
2018-12-09T22:42:08.765Z,8.27
2018-12-09T22:44:35.017Z,7.63
2018-12-09T22:47:01.282Z,6.30
2018-12-09T22:49:27.542Z,8.27
2018-12-09T22:51:53.802Z,9.30
2018-12-09T22:54:20.051Z,7.50
2018-12-09T22:56:46.297Z,7.80
2018-12-09T22:59:12.547Z,13.10
2018-12-09T23:01:40.953Z,8.47
2018-12-09T23:04:07.209Z,8.93
2018-12-09T23:06:33.449Z,9.37
2018-12-09T23:08:59.708Z,9.03
2018-12-09T23:11:26.017Z,7.30
2018-12-09T23:13:52.285Z,7.00
2018-12-09T23:16:18.536Z,11.63
2018-12-09T23:18:44.893Z,8.27
2018-12-09T23:21:11.169Z,11.07
2018-12-09T23:23:37.409Z,10.37
2018-12-09T23:26:03.694Z,8.90
2018-12-09T23:28:29.941Z,9.13
2018-12-09T23:30:56.189Z,11.47
2018-12-09T23:33:22.434Z,6.73
2018-12-09T23:35:48.718Z,12.73
2018-12-09T23:38:15.085Z,6.60
2018-12-09T23:40:41.345Z,15.17
2018-12-09T23:43:07.610Z,8.33
2018-12-09T23:45:33.869Z,7.83
2018-12-09T23:48:00.158Z,11.57
2018-12-09T23:50:26.409Z,12.97
2018-12-09T23:52:52.646Z,8.43
2018-12-09T23:55:18.900Z,10.10
2018-12-09T23:57:45.138Z,9.97
